• Join FlightAware (Why Join?)
  • Login
  • US Flag 
06:13PM EST


 

Airport Tracker/Info


-or-


 

Live Flight TrackerFlight Track Log ✈ N152SR ✈ 29-Jun-2014 ✈ KCDW - KHTO

Flight Track Log - Related Links

Times and Time Zones

All times are in EDT time to prevent confusion due to time zone crossing. See the N152SR flight status page for this flight to view local times or setup timezone preferences in your user account.

Time Position Orientation Groundspeed Altitude Reporting Facility
EDT Latitude Longitude Course Direction KTS MPH feet Rate Location/Type
12:57PM 40.9667 -74.1000 72° East 137 158 2,500  Level New York TRACON
12:58PM 40.9833 -74.0333 72° East 158 182 2,500  Level New York TRACON
12:59PM 40.9833 -73.9833 90° East 159 183 2,500  Level New York TRACON
01:00PM 40.9833 -73.9167 90° East 161 185 2,600  Climbing New York TRACON
01:01PM 40.9833 -73.8500 90° East 161 185 2,500 -60 Descending New York TRACON
01:02PM 40.9667 -73.8000 114° Southeast 163 188 2,500  Level New York TRACON
01:03PM 40.9667 -73.7333 90° East 164 189 2,500  Level New York TRACON
01:04PM 40.9667 -73.6833 90° East 162 186 2,500  Level New York TRACON
01:05PM 40.9500 -73.6167 108° East 161 185 2,500  Level New York TRACON
01:06PM 40.9500 -73.5667 90° East 162 186 2,500  Level New York TRACON
01:07PM 40.9500 -73.5000 90° East 166 191 2,600  Climbing New York TRACON
01:08PM 40.9500 -73.4333 90° East 164 189 2,500 -60 Descending New York TRACON
01:09PM 40.9500 -73.3833 90° East 164 189 2,500  Level New York TRACON
01:10PM 40.9500 -73.3167 90° East 163 188 2,500  Level New York TRACON
01:11PM 40.9333 -73.2667 114° Southeast 168 193 2,500  Level New York TRACON
01:12PM 40.9333 -73.2000 90° East 168 193 2,500  Level New York TRACON
01:13PM 40.9500 -73.1333 72° East 168 193 2,500  Level New York TRACON
01:14PM 40.9500 -73.0833 90° East 169 194 2,500  Level New York TRACON
01:15PM 40.9500 -73.0167 90° East 165 190 2,500  Level New York TRACON
01:16PM 40.9500 -72.9500 90° East 165 190 2,600  Climbing New York TRACON
01:17PM 40.9500 -72.9000 90° East 166 191 2,600 -60 Level New York TRACON
01:18PM 40.9500 -72.8333 90° East 166 191 2,500 -60 Descending New York TRACON
01:19PM 40.9500 -72.7667 90° East 167 192 2,500  Level New York TRACON
01:20PM 40.9500 -72.7167 90° East 166 191 2,500  Level New York TRACON
01:21PM 40.9500 -72.6500 90° East 163 188 2,500  Level New York TRACON
01:22PM 40.9500 -72.6000 90° East 163 188 2,500  Level New York TRACON
01:23PM 40.9500 -72.5333 90° East 164 189 2,500  Level New York TRACON
01:25PM 40.9501 -72.4306 90° East  Level FlightAware Approximate
01:32PM 40.9500 -72.2500 90° East  Level FlightAware Approximate
01:33PM 40.9594 -72.2517 352° North  Level Estimated
01:34PM 40.9594 -72.2517 90° East  Level Estimated
01:35PM 40.9594 -72.2517 North  Level Estimated
01:36PM 40.9594 -72.2517 90° East  Level Estimated
01:37PM 40.9594 -72.2517 North  Level Estimated
01:38PM 40.9594 -72.2517 90° East  Level Estimated
01:39PM 40.9594 -72.2517 North  Level Estimated
01:40PM 40.9594 -72.2517 90° East  Level Estimated
01:41PM 40.9594 -72.2517 North  Level Estimated
01:42PM 40.9594 -72.2517 90° East  Level Estimated
01:43PM 40.9594 -72.2517 North  Level Estimated
01:44PM 40.9594 -72.2517 90° East  Level Estimated
01:45PM 40.9594 -72.2517 North  Level Estimated